createdAt,value
2023-02-19T00:00:24.015Z,0.40
2023-02-19T00:01:23.946Z,0.30
2023-02-19T00:02:23.937Z,0.30
2023-02-19T00:03:24.020Z,0.40
2023-02-19T00:04:23.961Z,0.30
2023-02-19T00:05:23.891Z,0.40
2023-02-19T00:06:23.880Z,0.40
2023-02-19T00:07:23.866Z,0.30
2023-02-19T00:08:23.852Z,0.40
2023-02-19T00:09:23.836Z,0.30
2023-02-19T00:10:23.826Z,0.30
2023-02-19T00:11:23.812Z,0.40
2023-02-19T00:12:23.806Z,0.30
2023-02-19T00:13:23.782Z,0.40
2023-02-19T00:14:23.773Z,0.30
2023-02-19T00:15:23.757Z,0.30
2023-02-19T00:16:23.770Z,0.40
2023-02-19T00:17:23.727Z,0.30
2023-02-19T00:18:23.716Z,0.40
2023-02-19T00:19:23.735Z,0.40
2023-02-19T00:20:23.690Z,0.30
2023-02-19T00:21:23.674Z,0.40
2023-02-19T00:22:23.660Z,0.40
2023-02-19T00:23:23.645Z,0.40
2023-02-19T00:24:23.633Z,0.40
2023-02-19T00:25:23.626Z,0.40
2023-02-19T00:26:23.612Z,0.40
2023-02-19T00:27:23.591Z,0.50
2023-02-19T00:28:23.585Z,0.40
2023-02-19T00:29:23.565Z,0.50
2023-02-19T00:30:23.641Z,0.50
2023-02-19T00:31:23.813Z,0.40
2023-02-19T00:32:23.613Z,0.40
2023-02-19T00:33:23.516Z,0.50
2023-02-19T00:34:23.501Z,0.40
2023-02-19T00:35:23.487Z,0.50
2023-02-19T00:36:23.564Z,0.50
2023-02-19T00:37:23.462Z,0.40
2023-02-19T00:38:23.448Z,0.50
2023-02-19T00:39:23.431Z,0.40
2023-02-19T00:40:23.422Z,0.50
2023-02-19T00:41:23.406Z,0.50
2023-02-19T00:42:23.394Z,0.40
2023-02-19T00:43:23.386Z,0.40
2023-02-19T00:44:23.370Z,0.40
2023-02-19T00:45:23.354Z,0.40
2023-02-19T00:46:23.477Z,0.50
2023-02-19T00:47:23.327Z,0.40
2023-02-19T00:48:23.343Z,0.50
2023-02-19T00:49:23.299Z,0.40
2023-02-19T00:50:23.289Z,0.50
2023-02-19T00:51:23.290Z,0.50
2023-02-19T00:52:23.263Z,0.40
2023-02-19T00:53:23.257Z,0.50
2023-02-19T00:54:23.242Z,0.40
2023-02-19T00:55:23.226Z,0.50
2023-02-19T00:56:23.225Z,0.40
2023-02-19T00:57:23.197Z,0.50
2023-02-19T00:58:23.193Z,0.40
2023-02-19T00:59:23.173Z,0.50
2023-02-19T01:00:23.158Z,0.50
2023-02-19T01:01:23.230Z,0.40
2023-02-19T01:02:23.131Z,0.50
2023-02-19T01:03:23.123Z,0.30
2023-02-19T01:04:23.153Z,0.40
2023-02-19T01:05:23.085Z,0.40
2023-02-19T01:06:23.086Z,0.30
2023-02-19T01:07:23.059Z,0.40
2023-02-19T01:08:23.056Z,0.30
2023-02-19T01:09:23.033Z,0.30
2023-02-19T01:10:23.018Z,0.50
2023-02-19T01:11:23.006Z,0.50
2023-02-19T01:12:22.992Z,0.50
2023-02-19T01:13:22.981Z,0.40
2023-02-19T01:14:22.969Z,0.50
2023-02-19T01:15:22.949Z,0.50
2023-02-19T01:16:23.000Z,0.40
2023-02-19T01:17:22.922Z,0.50
2023-02-19T01:18:22.911Z,0.50
2023-02-19T01:19:22.896Z,0.50
2023-02-19T01:20:22.911Z,0.60
2023-02-19T01:21:22.869Z,0.40
2023-02-19T01:22:22.856Z,0.50
2023-02-19T01:23:22.843Z,0.50
2023-02-19T01:24:22.833Z,0.40
2023-02-19T01:25:22.819Z,0.50
2023-02-19T01:26:22.808Z,0.40
2023-02-19T01:27:22.790Z,0.40
2023-02-19T01:28:22.780Z,0.50
2023-02-19T01:29:22.764Z,0.40
2023-02-19T01:30:22.864Z,0.40
2023-02-19T01:31:22.978Z,0.40
2023-02-19T01:32:22.818Z,0.30
2023-02-19T01:33:22.713Z,0.40
2023-02-19T01:34:22.701Z,0.30
2023-02-19T01:35:22.687Z,0.40
2023-02-19T01:36:22.706Z,0.40
2023-02-19T01:37:22.662Z,0.40
2023-02-19T01:38:22.650Z,0.40
2023-02-19T01:39:22.637Z,0.30
2023-02-19T01:40:22.626Z,0.40
2023-02-19T01:41:22.616Z,0.40
2023-02-19T01:42:22.598Z,0.40
2023-02-19T01:43:22.584Z,0.40
2023-02-19T01:44:22.573Z,0.40
2023-02-19T01:45:22.563Z,0.40
2023-02-19T01:46:22.574Z,0.40
2023-02-19T01:47:22.536Z,0.40
2023-02-19T01:48:22.523Z,0.50
2023-02-19T01:49:22.507Z,0.40
2023-02-19T01:50:22.498Z,0.40
2023-02-19T01:51:22.482Z,0.50
2023-02-19T01:52:22.525Z,0.40
2023-02-19T01:53:22.455Z,0.50
2023-02-19T01:54:22.446Z,0.50
2023-02-19T01:55:22.434Z,0.40
2023-02-19T01:56:22.426Z,0.40
2023-02-19T01:57:22.406Z,0.40
2023-02-19T01:58:22.398Z,0.50
2023-02-19T01:59:22.387Z,0.40
2023-02-19T02:00:22.369Z,0.40
2023-02-19T02:01:22.356Z,0.50
2023-02-19T02:02:22.339Z,0.40
2023-02-19T02:03:22.331Z,0.50
2023-02-19T02:04:22.314Z,0.50
2023-02-19T02:05:22.299Z,0.40
2023-02-19T02:06:22.288Z,0.50
2023-02-19T02:07:22.276Z,0.40
2023-02-19T02:08:22.287Z,0.50
2023-02-19T02:09:22.247Z,0.50
2023-02-19T02:10:22.313Z,0.40
2023-02-19T02:11:22.224Z,0.50
2023-02-19T02:12:22.212Z,0.40
2023-02-19T02:13:22.197Z,0.50
2023-02-19T02:14:22.187Z,0.40
2023-02-19T02:15:22.182Z,0.50
2023-02-19T02:16:22.212Z,0.40
2023-02-19T02:17:22.164Z,0.40
2023-02-19T02:18:22.135Z,0.50
2023-02-19T02:19:22.128Z,0.40
2023-02-19T02:20:22.155Z,0.50
2023-02-19T02:21:22.100Z,0.40
2023-02-19T02:22:22.084Z,0.50
2023-02-19T02:23:22.070Z,0.50
2023-02-19T02:24:22.139Z,0.40
2023-02-19T02:25:22.043Z,0.50
2023-02-19T02:26:22.032Z,0.40
2023-02-19T02:27:22.018Z,0.40
2023-02-19T02:28:22.005Z,0.50
2023-02-19T02:29:21.994Z,0.40
2023-02-19T02:30:22.104Z,0.50
2023-02-19T02:31:22.093Z,0.40
2023-02-19T02:32:21.983Z,0.40
2023-02-19T02:33:21.954Z,0.50
2023-02-19T02:34:21.927Z,0.40
2023-02-19T02:35:21.917Z,0.50
2023-02-19T02:36:21.900Z,0.40
2023-02-19T02:37:21.889Z,0.40
2023-02-19T02:38:21.874Z,0.50
2023-02-19T02:39:21.865Z,0.40
2023-02-19T02:40:21.849Z,0.40
2023-02-19T02:41:21.833Z,0.40
2023-02-19T02:42:21.821Z,0.40
2023-02-19T02:43:21.806Z,0.50
2023-02-19T02:44:21.800Z,0.40
2023-02-19T02:45:21.778Z,0.40
2023-02-19T02:46:21.900Z,0.40
2023-02-19T02:47:21.756Z,0.30
2023-02-19T02:48:21.760Z,0.40
2023-02-19T02:49:21.728Z,0.40
2023-02-19T02:50:21.717Z,0.40
2023-02-19T02:51:21.700Z,0.40
2023-02-19T02:52:21.690Z,0.30
2023-02-19T02:53:21.687Z,0.40
2023-02-19T02:54:21.664Z,0.40
2023-02-19T02:55:21.650Z,0.40
2023-02-19T02:56:21.734Z,0.50
2023-02-19T02:57:21.622Z,0.40
2023-02-19T02:58:21.611Z,0.40
2023-02-19T02:59:21.597Z,0.40
2023-02-19T03:00:21.586Z,0.40
2023-02-19T03:01:21.585Z,0.40
2023-02-19T03:02:21.590Z,0.40
2023-02-19T03:03:21.551Z,0.40
2023-02-19T03:04:21.533Z,0.60
2023-02-19T03:05:21.523Z,0.40
2023-02-19T03:06:21.506Z,0.60
2023-02-19T03:07:21.503Z,0.40
2023-02-19T03:08:21.478Z,0.50
2023-02-19T03:09:21.474Z,0.50
2023-02-19T03:10:21.481Z,0.50
2023-02-19T03:11:21.446Z,0.40
2023-02-19T03:12:21.455Z,0.40
2023-02-19T03:13:21.458Z,0.40
2023-02-19T03:14:21.404Z,0.50
2023-02-19T03:15:21.392Z,0.40
2023-02-19T03:16:21.399Z,0.50
2023-02-19T03:17:21.363Z,0.40
2023-02-19T03:18:21.359Z,0.40
2023-02-19T03:19:21.344Z,0.50
2023-02-19T03:20:21.328Z,0.40
2023-02-19T03:21:21.311Z,0.50
2023-02-19T03:22:21.299Z,0.40
2023-02-19T03:23:21.294Z,0.40
2023-02-19T03:24:21.274Z,0.40
2023-02-19T03:25:21.256Z,0.30
2023-02-19T03:26:21.251Z,0.30
2023-02-19T03:27:21.231Z,0.30
2023-02-19T03:28:21.220Z,0.40
2023-02-19T03:29:21.208Z,0.40
2023-02-19T03:30:21.237Z,0.40
2023-02-19T03:31:21.335Z,0.40
2023-02-19T03:32:21.204Z,0.40
2023-02-19T03:33:21.153Z,0.40
2023-02-19T03:34:21.143Z,0.40
2023-02-19T03:35:21.127Z,0.40
2023-02-19T03:36:21.115Z,0.60
2023-02-19T03:37:21.102Z,0.50
2023-02-19T03:38:21.085Z,0.40
2023-02-19T03:39:21.079Z,0.40
2023-02-19T03:40:21.059Z,0.30
2023-02-19T03:41:21.047Z,0.40
2023-02-19T03:42:21.033Z,0.50
2023-02-19T03:43:21.027Z,0.40
2023-02-19T03:44:21.007Z,0.50
2023-02-19T03:45:20.995Z,0.40
2023-02-19T03:46:20.977Z,0.30
2023-02-19T03:47:20.966Z,0.40
2023-02-19T03:48:20.954Z,0.40
2023-02-19T03:49:20.939Z,0.50
2023-02-19T03:50:20.926Z,0.40
2023-02-19T03:51:20.928Z,0.40
2023-02-19T03:52:20.898Z,0.40
2023-02-19T03:53:20.887Z,0.30
2023-02-19T03:54:20.873Z,0.40
2023-02-19T03:55:20.864Z,0.40
2023-02-19T03:56:20.846Z,0.40
2023-02-19T03:57:20.836Z,0.50
2023-02-19T03:58:20.822Z,0.40
2023-02-19T03:59:20.811Z,0.50
2023-02-19T04:00:20.799Z,0.50
2023-02-19T04:01:20.785Z,0.30
2023-02-19T04:02:20.829Z,0.40
2023-02-19T04:03:20.789Z,0.30
2023-02-19T04:04:20.779Z,0.40
2023-02-19T04:05:20.740Z,0.40
2023-02-19T04:06:20.733Z,0.40
2023-02-19T04:07:20.712Z,0.40
2023-02-19T04:08:20.706Z,0.30
2023-02-19T04:09:20.686Z,0.40
2023-02-19T04:10:20.680Z,0.40
2023-02-19T04:11:20.674Z,0.40
2023-02-19T04:12:20.671Z,0.40
2023-02-19T04:13:20.633Z,0.30
2023-02-19T04:14:20.620Z,0.40
2023-02-19T04:15:20.641Z,0.50
2023-02-19T04:16:20.646Z,0.40
2023-02-19T04:17:20.688Z,0.40
2023-02-19T04:18:20.573Z,0.30
2023-02-19T04:19:20.574Z,0.40
2023-02-19T04:20:20.558Z,0.40
2023-02-19T04:21:20.533Z,0.40
2023-02-19T04:22:20.521Z,0.50
2023-02-19T04:23:20.519Z,0.40
2023-02-19T04:24:20.499Z,0.50
2023-02-19T04:25:20.485Z,0.50
2023-02-19T04:26:20.474Z,0.40
2023-02-19T04:27:20.458Z,0.40
2023-02-19T04:28:20.443Z,0.40
2023-02-19T04:29:20.430Z,0.40
2023-02-19T04:30:20.431Z,0.50
2023-02-19T04:31:20.525Z,0.40
2023-02-19T04:32:20.392Z,0.40
2023-02-19T04:33:20.378Z,0.40
2023-02-19T04:34:20.363Z,0.40
2023-02-19T04:35:20.359Z,0.50
2023-02-19T04:36:20.339Z,0.40
2023-02-19T04:37:20.335Z,0.40
2023-02-19T04:38:20.320Z,0.40
2023-02-19T04:39:20.302Z,0.40
2023-02-19T04:40:20.286Z,0.50
2023-02-19T04:41:20.271Z,0.40
2023-02-19T04:42:20.266Z,0.50
2023-02-19T04:43:20.241Z,0.40
2023-02-19T04:44:20.226Z,0.40
2023-02-19T04:45:20.215Z,0.40
2023-02-19T04:46:20.253Z,0.40
2023-02-19T04:47:20.194Z,0.40
2023-02-19T04:48:20.172Z,0.50
2023-02-19T04:49:20.159Z,0.40
2023-02-19T04:50:20.158Z,0.50
2023-02-19T04:51:20.136Z,0.40
2023-02-19T04:52:20.118Z,0.40
2023-02-19T04:53:20.107Z,0.50
2023-02-19T04:54:20.090Z,0.40
2023-02-19T04:55:20.078Z,0.50
2023-02-19T04:56:20.080Z,0.40
2023-02-19T04:57:20.054Z,0.40
2023-02-19T04:58:20.037Z,0.50
2023-02-19T04:59:20.021Z,0.30
2023-02-19T05:00:20.010Z,0.50
2023-02-19T05:01:20.034Z,0.40
2023-02-19T05:02:19.983Z,0.30
2023-02-19T05:03:19.971Z,0.40
2023-02-19T05:04:19.970Z,0.40
2023-02-19T05:05:19.951Z,0.40
2023-02-19T05:06:20.085Z,0.50
2023-02-19T05:07:19.915Z,0.40
2023-02-19T05:08:19.900Z,0.50
2023-02-19T05:09:19.889Z,0.50
2023-02-19T05:10:19.878Z,0.50
2023-02-19T05:11:19.861Z,0.50
2023-02-19T05:12:19.847Z,0.40
2023-02-19T05:13:19.852Z,0.50
2023-02-19T05:14:19.819Z,0.50
2023-02-19T05:15:19.811Z,0.40
2023-02-19T05:16:19.797Z,0.50
2023-02-19T05:17:19.782Z,0.40
2023-02-19T05:18:19.768Z,0.40
2023-02-19T05:19:19.754Z,0.50
2023-02-19T05:20:19.745Z,0.40
2023-02-19T05:21:19.728Z,0.50
2023-02-19T05:22:19.719Z,0.50
2023-02-19T05:23:19.710Z,0.50
2023-02-19T05:24:19.692Z,0.50
2023-02-19T05:25:19.674Z,0.40
2023-02-19T05:26:19.720Z,0.50
2023-02-19T05:27:19.649Z,0.40
2023-02-19T05:28:19.651Z,0.40
2023-02-19T05:29:19.626Z,0.50
2023-02-19T05:30:19.649Z,0.30
2023-02-19T05:31:19.805Z,0.40
2023-02-19T05:32:19.588Z,0.40
2023-02-19T05:33:19.568Z,0.40
2023-02-19T05:34:19.582Z,0.30
2023-02-19T05:35:19.543Z,0.40
2023-02-19T05:36:19.648Z,0.40
2023-02-19T05:37:19.518Z,0.40
2023-02-19T05:38:19.507Z,0.30
2023-02-19T05:39:19.493Z,0.40
2023-02-19T05:40:19.481Z,0.50
2023-02-19T05:41:19.472Z,0.30
2023-02-19T05:42:19.464Z,0.40
2023-02-19T05:43:19.449Z,0.40
2023-02-19T05:44:19.484Z,0.30
2023-02-19T05:45:19.412Z,0.40
2023-02-19T05:46:19.450Z,0.40
2023-02-19T05:47:19.430Z,0.40
2023-02-19T05:48:19.391Z,0.40
2023-02-19T05:49:19.367Z,0.30
2023-02-19T05:50:19.355Z,0.40
2023-02-19T05:51:19.345Z,0.40
2023-02-19T05:52:19.319Z,0.40
2023-02-19T05:53:19.308Z,0.40
2023-02-19T05:54:19.306Z,0.30
2023-02-19T05:55:19.281Z,0.30
2023-02-19T05:56:19.268Z,0.40
2023-02-19T05:57:19.258Z,0.30
2023-02-19T05:58:19.242Z,0.40
2023-02-19T05:59:19.241Z,0.30
2023-02-19T06:00:19.217Z,0.30
2023-02-19T06:01:19.216Z,0.40
2023-02-19T06:02:19.189Z,0.30
2023-02-19T06:03:19.178Z,0.40
2023-02-19T06:04:19.174Z,0.50
2023-02-19T06:05:19.156Z,0.40
2023-02-19T06:06:19.143Z,0.40
2023-02-19T06:07:19.127Z,0.40
2023-02-19T06:08:19.111Z,0.40
2023-02-19T06:09:19.098Z,0.40
2023-02-19T06:10:19.085Z,0.40
2023-02-19T06:11:19.075Z,0.30
2023-02-19T06:12:19.060Z,0.40
2023-02-19T06:13:19.046Z,0.40
2023-02-19T06:14:19.035Z,0.40
2023-02-19T06:15:19.019Z,0.40
2023-02-19T06:16:19.068Z,0.40
2023-02-19T06:17:18.992Z,0.40
2023-02-19T06:18:18.983Z,0.40
2023-02-19T06:19:18.965Z,0.30
2023-02-19T06:20:18.962Z,0.40
2023-02-19T06:21:19.054Z,0.40
2023-02-19T06:22:18.925Z,0.40
2023-02-19T06:23:18.913Z,0.40
2023-02-19T06:24:18.900Z,0.40
2023-02-19T06:25:18.888Z,0.30
2023-02-19T06:26:18.874Z,0.40
2023-02-19T06:27:18.859Z,0.30
2023-02-19T06:28:18.842Z,0.30
2023-02-19T06:29:18.831Z,0.40
2023-02-19T06:30:18.868Z,0.30
2023-02-19T06:31:18.915Z,0.40
2023-02-19T06:32:18.923Z,0.40
2023-02-19T06:33:18.780Z,0.30
2023-02-19T06:34:18.765Z,0.40
2023-02-19T06:35:18.752Z,0.30
2023-02-19T06:36:18.744Z,0.30
2023-02-19T06:37:18.732Z,0.40
2023-02-19T06:38:18.716Z,0.30
2023-02-19T06:39:18.700Z,0.40
2023-02-19T06:40:18.685Z,0.40
2023-02-19T06:41:18.676Z,26.50
2023-02-19T06:42:19.255Z,2.29
2023-02-19T06:43:18.663Z,0.90
2023-02-19T06:45:18.621Z,1.00
2023-02-19T06:46:18.627Z,0.90
2023-02-19T06:47:18.592Z,0.80
2023-02-19T06:48:18.579Z,0.80
2023-02-19T06:49:18.566Z,0.80
2023-02-19T06:50:18.551Z,0.90
2023-02-19T06:51:18.541Z,0.80
2023-02-19T06:52:18.530Z,79.90
2023-02-19T06:53:18.512Z,0.80
2023-02-19T06:54:18.500Z,0.90
2023-02-19T06:55:18.487Z,1.00
2023-02-19T06:56:18.471Z,0.70
2023-02-19T06:57:18.464Z,0.90
2023-02-19T06:58:18.444Z,0.90
2023-02-19T06:59:18.433Z,0.80
2023-02-19T07:00:18.424Z,0.90
2023-02-19T07:01:18.409Z,0.70
2023-02-19T07:02:18.389Z,0.80
2023-02-19T07:03:18.384Z,42.00
2023-02-19T07:04:18.410Z,0.80
2023-02-19T07:05:18.348Z,0.80
2023-02-19T07:06:18.332Z,0.80
2023-02-19T07:07:18.319Z,0.80
2023-02-19T07:08:18.304Z,0.80
2023-02-19T07:09:18.291Z,0.80
2023-02-19T07:10:18.281Z,0.70
2023-02-19T07:11:18.268Z,0.90
2023-02-19T07:12:18.247Z,0.70
2023-02-19T07:13:18.236Z,33.29
2023-02-19T07:14:18.275Z,0.70
2023-02-19T07:15:18.213Z,0.80
2023-02-19T07:16:18.295Z,0.80
2023-02-19T07:17:18.186Z,0.80
2023-02-19T07:18:18.173Z,0.70
2023-02-19T07:19:18.155Z,0.70
2023-02-19T07:20:18.141Z,0.70
2023-02-19T07:21:18.126Z,0.70
2023-02-19T07:22:18.114Z,0.80
2023-02-19T07:23:18.100Z,0.60
2023-02-19T07:24:18.085Z,80.19
2023-02-19T07:25:18.078Z,0.70
2023-02-19T07:26:18.060Z,0.70
2023-02-19T07:27:18.047Z,0.70
2023-02-19T07:28:18.039Z,0.80
2023-02-19T07:29:18.021Z,0.60
2023-02-19T07:30:18.052Z,0.80
2023-02-19T07:31:18.063Z,0.60
2023-02-19T07:32:17.978Z,0.70
2023-02-19T07:33:17.968Z,0.70
2023-02-19T07:34:17.956Z,0.50
2023-02-19T07:35:17.942Z,32.59
2023-02-19T07:36:17.927Z,0.70
2023-02-19T07:37:17.915Z,0.60
2023-02-19T07:38:17.898Z,0.70
2023-02-19T07:39:17.892Z,0.70
2023-02-19T07:40:17.874Z,0.70
2023-02-19T07:41:17.861Z,0.70
2023-02-19T07:42:17.847Z,0.60
2023-02-19T07:43:17.835Z,0.70
2023-02-19T07:44:17.823Z,0.70
2023-02-19T07:45:17.810Z,37.50
2023-02-19T07:46:17.796Z,69.80
2023-02-19T07:47:17.782Z,71.09
2023-02-19T07:48:17.769Z,72.19
2023-02-19T07:49:17.752Z,69.30
2023-02-19T07:50:17.742Z,59.79
2023-02-19T07:51:17.734Z,60.00
2023-02-19T07:52:17.714Z,63.59
2023-02-19T07:53:17.720Z,62.50
2023-02-19T07:54:17.696Z,63.20
2023-02-19T07:55:17.674Z,60.90
2023-02-19T07:56:17.685Z,57.70
2023-02-19T07:57:17.655Z,56.70
2023-02-19T07:58:17.642Z,55.70
2023-02-19T07:59:17.620Z,55.79
2023-02-19T08:00:17.606Z,58.00
2023-02-19T08:01:17.623Z,58.50
2023-02-19T08:02:17.579Z,59.79
2023-02-19T08:03:17.585Z,56.79
2023-02-19T08:04:17.577Z,55.70
2023-02-19T08:05:17.538Z,56.70
2023-02-19T08:06:17.527Z,60.90
2023-02-19T08:07:17.514Z,60.50
2023-02-19T08:08:17.500Z,64.00
2023-02-19T08:09:17.487Z,65.50
2023-02-19T08:10:17.479Z,63.50
2023-02-19T08:11:17.460Z,56.90
2023-02-19T08:12:17.448Z,54.59
2023-02-19T08:13:17.438Z,53.70
2023-02-19T08:14:17.422Z,58.50
2023-02-19T08:15:17.408Z,62.29
2023-02-19T08:16:26.647Z,61.50
2023-02-19T08:17:19.421Z,58.79
2023-02-19T08:18:17.368Z,59.20
2023-02-19T08:19:17.355Z,56.20
2023-02-19T08:20:17.343Z,55.59
2023-02-19T08:21:17.331Z,54.20
2023-02-19T08:22:17.316Z,53.40
2023-02-19T08:23:17.307Z,53.00
2023-02-19T08:24:17.290Z,52.90
2023-02-19T08:25:17.275Z,53.50
2023-02-19T08:26:17.263Z,56.79
2023-02-19T08:27:17.256Z,56.50
2023-02-19T08:28:17.239Z,57.09
2023-02-19T08:29:17.228Z,61.40
2023-02-19T08:30:17.241Z,64.09
2023-02-19T08:31:17.403Z,62.20
2023-02-19T08:32:17.201Z,54.79
2023-02-19T08:33:17.173Z,54.70
2023-02-19T08:34:17.165Z,54.20
2023-02-19T08:35:17.146Z,53.59
2023-02-19T08:36:17.134Z,54.90
2023-02-19T08:37:17.118Z,54.79
2023-02-19T08:38:17.108Z,53.29
2023-02-19T08:39:18.426Z,54.29
2023-02-19T08:40:17.084Z,55.90
2023-02-19T08:41:17.070Z,58.20
2023-02-19T08:42:17.055Z,59.09
2023-02-19T08:43:17.038Z,60.40
2023-02-19T08:44:17.027Z,54.59
2023-02-19T08:45:17.015Z,61.09
2023-02-19T08:46:17.027Z,70.30
2023-02-19T08:47:17.003Z,71.50
2023-02-19T08:48:16.979Z,71.69
2023-02-19T08:49:16.971Z,73.00
2023-02-19T08:50:16.951Z,70.80
2023-02-19T08:51:16.941Z,68.69
2023-02-19T08:52:16.922Z,68.19
2023-02-19T08:53:16.908Z,68.90
2023-02-19T08:54:16.895Z,71.00
2023-02-19T08:55:16.882Z,64.19
2023-02-19T08:56:16.867Z,61.29
2023-02-19T08:57:16.853Z,54.79
2023-02-19T08:58:16.838Z,52.09
2023-02-19T08:59:16.829Z,54.29
2023-02-19T09:00:16.816Z,61.79
2023-02-19T09:01:16.876Z,66.50
2023-02-19T09:02:16.833Z,60.90
2023-02-19T09:03:16.774Z,52.50
2023-02-19T09:04:16.821Z,53.79
2023-02-19T09:05:16.749Z,52.29
2023-02-19T09:06:16.736Z,53.59
2023-02-19T09:07:16.726Z,54.20
2023-02-19T09:08:16.714Z,52.90
2023-02-19T09:09:16.696Z,55.29
2023-02-19T09:10:16.685Z,57.70
2023-02-19T09:11:16.673Z,60.59
2023-02-19T09:12:16.658Z,66.09
2023-02-19T09:13:16.642Z,66.80
2023-02-19T09:14:16.630Z,66.09
2023-02-19T09:15:16.619Z,64.09
2023-02-19T09:16:16.605Z,64.59
2023-02-19T09:17:16.592Z,62.90
2023-02-19T09:18:16.577Z,62.70
2023-02-19T09:19:16.563Z,64.00
2023-02-19T09:20:16.553Z,66.69
2023-02-19T09:21:16.542Z,63.70
2023-02-19T09:22:16.525Z,62.70
2023-02-19T09:23:16.511Z,64.30
2023-02-19T09:24:16.498Z,64.59
2023-02-19T09:25:16.484Z,63.90
2023-02-19T09:26:16.472Z,62.00
2023-02-19T09:27:16.458Z,63.29
2023-02-19T09:28:16.446Z,66.19
2023-02-19T09:29:16.432Z,67.30
2023-02-19T09:30:16.469Z,64.09
2023-02-19T09:31:16.959Z,64.69
2023-02-19T09:32:18.808Z,70.50
2023-02-19T09:33:16.379Z,73.80
2023-02-19T09:34:16.366Z,77.69
2023-02-19T09:35:16.357Z,74.00
2023-02-19T09:36:16.354Z,73.50
2023-02-19T09:37:16.334Z,77.30
2023-02-19T09:38:16.327Z,75.59
2023-02-19T09:39:16.315Z,81.09
2023-02-19T09:40:16.290Z,83.00
2023-02-19T09:41:16.292Z,77.90
2023-02-19T09:42:16.267Z,75.90
2023-02-19T09:43:16.260Z,71.00
2023-02-19T09:44:16.238Z,68.40
2023-02-19T09:45:16.223Z,67.00
2023-02-19T09:46:16.296Z,64.50
2023-02-19T09:47:16.201Z,64.69
2023-02-19T09:48:16.186Z,65.59
2023-02-19T09:49:16.169Z,65.40
2023-02-19T09:50:16.157Z,67.59
2023-02-19T09:51:16.141Z,69.50
2023-02-19T09:52:16.131Z,70.50
2023-02-19T09:53:16.115Z,83.40
2023-02-19T09:54:16.112Z,90.30
2023-02-19T09:55:16.099Z,90.59
2023-02-19T09:56:16.076Z,88.40
2023-02-19T09:57:16.065Z,84.09
2023-02-19T09:58:16.070Z,84.90
2023-02-19T09:59:16.032Z,86.00
2023-02-19T10:00:16.026Z,76.69
2023-02-19T10:01:16.048Z,77.40
2023-02-19T10:02:15.998Z,77.09
2023-02-19T10:03:15.979Z,75.50
2023-02-19T10:04:15.964Z,80.09
2023-02-19T10:05:15.985Z,85.09
2023-02-19T10:06:15.937Z,84.00
2023-02-19T10:07:15.924Z,86.80
2023-02-19T10:08:15.916Z,93.19
2023-02-19T10:09:15.894Z,94.50
2023-02-19T10:10:15.888Z,115.30
2023-02-19T10:11:15.865Z,126.30
2023-02-19T10:12:15.857Z,126.59
2023-02-19T10:13:15.841Z,129.19
2023-02-19T10:14:15.828Z,142.50
2023-02-19T10:15:15.812Z,154.10
2023-02-19T10:16:15.886Z,161.39
2023-02-19T10:17:15.789Z,162.19
2023-02-19T10:18:15.774Z,163.89
2023-02-19T10:19:15.757Z,162.19
2023-02-19T10:20:15.749Z,147.00
2023-02-19T10:21:15.733Z,135.19
2023-02-19T10:22:15.729Z,130.39
2023-02-19T10:23:15.704Z,137.19
2023-02-19T10:24:15.694Z,142.10
2023-02-19T10:25:15.693Z,147.80
2023-02-19T10:26:15.669Z,143.50
2023-02-19T10:27:15.651Z,152.39
2023-02-19T10:28:15.640Z,162.80
2023-02-19T10:29:15.627Z,156.60
2023-02-19T10:30:15.649Z,159.30
2023-02-19T10:31:16.112Z,151.80
2023-02-19T10:32:15.678Z,126.90
2023-02-19T10:33:15.603Z,134.60
2023-02-19T10:34:15.564Z,159.39
2023-02-19T10:35:15.551Z,141.00
2023-02-19T10:36:15.539Z,130.19
2023-02-19T10:37:15.550Z,135.89
2023-02-19T10:38:15.516Z,159.00
2023-02-19T10:39:15.520Z,151.60
2023-02-19T10:40:15.486Z,150.39
2023-02-19T10:41:15.472Z,162.10
2023-02-19T10:42:15.463Z,144.89
2023-02-19T10:43:15.450Z,145.89
2023-02-19T10:44:15.435Z,152.00
2023-02-19T10:45:15.424Z,144.50
2023-02-19T10:46:15.438Z,141.00
2023-02-19T10:47:15.393Z,153.39
2023-02-19T10:48:15.389Z,157.69
2023-02-19T10:49:15.366Z,154.80
2023-02-19T10:50:15.354Z,158.80
2023-02-19T10:51:15.339Z,156.60
2023-02-19T10:52:15.327Z,157.39
2023-02-19T10:53:15.314Z,146.00
2023-02-19T10:54:15.301Z,129.10
2023-02-19T10:55:15.288Z,143.19
2023-02-19T10:56:15.277Z,122.40
2023-02-19T10:57:15.259Z,109.30
2023-02-19T10:58:15.254Z,111.90
2023-02-19T10:59:15.235Z,111.59
2023-02-19T11:00:15.235Z,125.30
2023-02-19T11:01:15.210Z,127.30
2023-02-19T11:02:15.196Z,119.40
2023-02-19T11:03:15.188Z,118.00
2023-02-19T11:04:15.210Z,88.50
2023-02-19T11:05:15.212Z,89.50
2023-02-19T11:06:15.143Z,95.69
2023-02-19T11:07:15.166Z,97.69
2023-02-19T11:08:15.118Z,87.19
2023-02-19T11:09:15.103Z,95.09
2023-02-19T11:10:15.091Z,101.59
2023-02-19T11:11:15.080Z,105.80
2023-02-19T11:12:15.064Z,114.19
2023-02-19T11:13:15.049Z,73.90
2023-02-19T11:14:15.045Z,72.40
2023-02-19T11:15:15.027Z,107.80
2023-02-19T11:16:15.046Z,120.80
2023-02-19T11:17:14.998Z,110.40
2023-02-19T11:18:14.984Z,97.59
2023-02-19T11:19:14.972Z,80.69
2023-02-19T11:20:14.980Z,80.80
2023-02-19T11:21:14.945Z,95.90
2023-02-19T11:22:14.933Z,99.69
2023-02-19T11:23:14.943Z,93.90
2023-02-19T11:24:14.909Z,104.00
2023-02-19T11:25:14.902Z,117.00
2023-02-19T11:26:14.878Z,91.90
2023-02-19T11:27:14.865Z,70.19
2023-02-19T11:28:14.852Z,62.40
2023-02-19T11:29:14.837Z,54.79
2023-02-19T11:30:14.897Z,54.00
2023-02-19T11:31:15.372Z,58.00
2023-02-19T11:32:14.900Z,70.09
2023-02-19T11:33:14.785Z,74.50
2023-02-19T11:34:14.780Z,123.09
2023-02-19T11:35:14.761Z,135.10
2023-02-19T11:36:14.751Z,143.50
2023-02-19T11:37:14.970Z,132.10
2023-02-19T11:38:14.722Z,136.19
2023-02-19T11:39:14.710Z,132.50
2023-02-19T11:40:14.696Z,129.39
2023-02-19T11:41:14.684Z,94.59
2023-02-19T11:42:14.683Z,84.09
2023-02-19T11:43:14.660Z,111.50
2023-02-19T11:44:14.646Z,142.10
2023-02-19T11:45:14.633Z,147.39
2023-02-19T11:46:14.651Z,136.39
2023-02-19T11:47:14.606Z,131.00
2023-02-19T11:48:14.596Z,127.90
2023-02-19T11:49:14.583Z,120.30
2023-02-19T11:50:14.607Z,123.40
2023-02-19T11:51:14.554Z,120.69
2023-02-19T11:52:14.555Z,112.50
2023-02-19T11:53:14.531Z,123.50
2023-02-19T11:54:14.515Z,117.50
2023-02-19T11:55:14.500Z,113.40
2023-02-19T11:56:14.495Z,110.80
2023-02-19T11:57:14.489Z,140.30
2023-02-19T11:58:14.461Z,147.30
2023-02-19T11:59:14.456Z,145.80
2023-02-19T12:00:14.581Z,131.00
2023-02-19T12:01:14.426Z,133.10
2023-02-19T12:02:14.429Z,143.00
2023-02-19T12:03:14.394Z,119.40
2023-02-19T12:04:14.385Z,91.50
2023-02-19T12:05:14.391Z,90.19
2023-02-19T12:06:14.350Z,104.09
2023-02-19T12:07:16.466Z,143.69
2023-02-19T12:08:14.332Z,145.10
2023-02-19T12:09:14.329Z,154.19
2023-02-19T12:10:14.296Z,150.80
2023-02-19T12:11:14.289Z,150.50
2023-02-19T12:12:14.283Z,133.39
2023-02-19T12:13:14.263Z,117.50
2023-02-19T12:14:14.473Z,115.50
2023-02-19T12:15:14.235Z,121.50
2023-02-19T12:16:14.397Z,125.80
2023-02-19T12:17:14.349Z,133.10
2023-02-19T12:18:14.191Z,136.50
2023-02-19T12:19:14.183Z,142.60
2023-02-19T12:20:14.187Z,158.39
2023-02-19T12:21:14.163Z,139.10
2023-02-19T12:22:14.143Z,105.00
2023-02-19T12:23:14.144Z,98.40
2023-02-19T12:24:14.116Z,146.50
2023-02-19T12:25:14.105Z,170.30
2023-02-19T12:26:14.088Z,161.39
2023-02-19T12:27:14.076Z,161.00
2023-02-19T12:28:14.063Z,166.80
2023-02-19T12:29:14.056Z,166.00
2023-02-19T12:30:14.168Z,154.69
2023-02-19T12:31:14.083Z,129.10
2023-02-19T12:32:14.011Z,152.60
2023-02-19T12:33:14.003Z,153.60
2023-02-19T12:34:13.998Z,160.80
2023-02-19T12:35:13.971Z,154.60
2023-02-19T12:36:14.027Z,155.10
2023-02-19T12:37:13.945Z,153.50
2023-02-19T12:38:13.932Z,148.80
2023-02-19T12:39:13.925Z,143.80
2023-02-19T12:40:13.914Z,143.00
2023-02-19T12:41:13.894Z,138.30
2023-02-19T12:42:13.906Z,144.80
2023-02-19T12:43:13.868Z,144.00
2023-02-19T12:44:13.856Z,143.80
2023-02-19T12:45:13.846Z,131.30
2023-02-19T12:46:14.210Z,135.60
2023-02-19T12:47:13.817Z,137.89
2023-02-19T12:48:13.804Z,135.39
2023-02-19T12:49:13.789Z,111.59
2023-02-19T12:50:13.781Z,106.40
2023-02-19T12:51:13.765Z,105.69
2023-02-19T12:52:13.751Z,108.90
2023-02-19T12:53:13.750Z,106.30
2023-02-19T12:54:13.737Z,127.00
2023-02-19T12:55:13.716Z,101.00
2023-02-19T12:56:13.780Z,109.40
2023-02-19T12:57:13.693Z,86.59
2023-02-19T12:58:13.684Z,94.59
2023-02-19T12:59:13.662Z,96.59
2023-02-19T13:00:13.649Z,109.40
2023-02-19T13:01:13.651Z,103.59
2023-02-19T13:02:13.731Z,112.69
2023-02-19T13:03:13.613Z,113.19